createdAt,value
2018-07-15T00:01:35.999Z,17.23
2018-07-15T00:04:04.321Z,17.18
2018-07-15T00:06:32.634Z,17.20
2018-07-15T00:09:00.961Z,17.16
2018-07-15T00:11:29.303Z,17.19
2018-07-15T00:13:57.612Z,17.20
2018-07-15T00:16:25.367Z,17.20
2018-07-15T00:18:54.267Z,17.22
2018-07-15T00:21:22.588Z,17.21
2018-07-15T00:23:50.354Z,17.21
2018-07-15T00:26:19.267Z,17.21
2018-07-15T00:28:47.580Z,17.20
2018-07-15T00:31:15.904Z,17.20
2018-07-15T00:33:44.229Z,17.19
2018-07-15T00:36:11.967Z,17.13
2018-07-15T00:38:40.865Z,17.12
2018-07-15T00:41:09.174Z,17.14
2018-07-15T00:43:36.917Z,17.11
2018-07-15T00:46:05.816Z,17.13
2018-07-15T00:48:33.557Z,17.19
2018-07-15T00:51:02.208Z,17.15
2018-07-15T00:53:30.755Z,17.13
2018-07-15T00:55:59.078Z,17.12
2018-07-15T00:58:27.399Z,17.12
2018-07-15T01:00:55.737Z,17.15
2018-07-15T01:03:24.052Z,17.16
2018-07-15T01:05:52.371Z,17.18
2018-07-15T01:08:20.685Z,17.16
2018-07-15T01:10:49.009Z,17.15
2018-07-15T01:13:17.337Z,17.13
2018-07-15T01:15:45.082Z,17.13
2018-07-15T01:18:13.999Z,17.11
2018-07-15T01:20:42.318Z,17.15
2018-07-15T01:23:10.635Z,17.13
2018-07-15T01:25:38.388Z,17.12
2018-07-15T01:28:07.292Z,17.14
2018-07-15T01:30:35.597Z,17.19
2018-07-15T01:33:03.346Z,17.17
2018-07-15T01:35:32.254Z,17.14
2018-07-15T01:38:00.568Z,17.18
2018-07-15T01:40:28.897Z,17.21
2018-07-15T01:42:57.225Z,17.17
2018-07-15T01:45:25.555Z,17.17
2018-07-15T01:47:53.294Z,17.16
2018-07-15T01:50:22.196Z,17.17
2018-07-15T01:52:50.523Z,17.16
2018-07-15T01:55:18.280Z,17.14
2018-07-15T01:57:47.191Z,17.16
2018-07-15T02:00:15.521Z,17.17
2018-07-15T02:02:43.903Z,17.20
2018-07-15T02:05:12.213Z,17.23
2018-07-15T02:07:40.533Z,17.17
2018-07-15T02:10:08.780Z,17.22
2018-07-15T02:12:36.599Z,17.23
2018-07-15T02:15:05.494Z,17.20
2018-07-15T02:17:33.826Z,17.21
2018-07-15T02:20:01.567Z,17.23
2018-07-15T02:22:30.467Z,17.30
2018-07-15T02:24:58.789Z,17.32
2018-07-15T02:27:26.529Z,17.24
2018-07-15T02:29:54.846Z,17.15
2018-07-15T02:32:23.167Z,17.14
2018-07-15T02:34:51.492Z,17.14
2018-07-15T02:37:20.392Z,17.12
2018-07-15T02:39:48.715Z,17.11
2018-07-15T02:42:17.041Z,17.08
2018-07-15T02:44:44.783Z,17.07
2018-07-15T02:47:13.689Z,17.12
2018-07-15T02:49:42.011Z,17.12
2018-07-15T02:52:09.751Z,17.12
2018-07-15T02:54:38.085Z,17.11
2018-07-15T02:57:06.396Z,17.15
2018-07-15T02:59:35.291Z,17.18
2018-07-15T03:02:03.602Z,17.19
2018-07-15T03:04:31.975Z,17.21
2018-07-15T03:07:00.288Z,17.22
2018-07-15T03:09:28.623Z,17.25
2018-07-15T03:11:56.942Z,17.27
2018-07-15T03:14:25.271Z,17.32
2018-07-15T03:16:53.591Z,17.34
2018-07-15T03:19:21.902Z,17.36
2018-07-15T03:21:50.225Z,17.35
2018-07-15T03:24:18.547Z,17.54
2018-07-15T03:26:46.869Z,17.46
2018-07-15T03:29:15.192Z,17.42
2018-07-15T03:31:43.505Z,17.40
2018-07-15T03:34:11.836Z,17.39
2018-07-15T03:36:40.152Z,17.41
2018-07-15T03:39:08.487Z,17.45
2018-07-15T03:41:36.812Z,17.51
2018-07-15T03:44:04.719Z,17.59
2018-07-15T03:46:33.454Z,17.58
2018-07-15T03:49:01.186Z,17.57
2018-07-15T03:51:30.096Z,17.52
2018-07-15T03:53:58.416Z,17.56
2018-07-15T03:56:26.749Z,17.57
2018-07-15T03:58:55.062Z,17.56
2018-07-15T04:01:23.374Z,17.59
2018-07-15T04:03:51.698Z,17.67
2018-07-15T04:06:20.052Z,17.72
2018-07-15T04:08:47.925Z,17.68
2018-07-15T04:11:16.678Z,17.75
2018-07-15T04:13:45.004Z,17.77
2018-07-15T04:16:12.743Z,17.79
2018-07-15T04:18:41.062Z,17.76
2018-07-15T04:21:09.960Z,17.89
2018-07-15T04:23:38.289Z,18.07
2018-07-15T04:26:06.300Z,18.16
2018-07-15T04:28:34.357Z,18.15
2018-07-15T04:31:02.818Z,18.12
2018-07-15T04:33:31.084Z,18.05
2018-07-15T04:35:59.309Z,18.12
2018-07-15T04:38:28.206Z,18.07
2018-07-15T04:40:56.538Z,18.16
2018-07-15T04:43:24.859Z,18.26
2018-07-15T04:45:53.177Z,18.28
2018-07-15T04:48:20.930Z,18.36
2018-07-15T04:50:49.839Z,18.36
2018-07-15T04:53:17.570Z,18.40
2018-07-15T04:55:46.461Z,18.42
2018-07-15T04:58:14.800Z,18.48
2018-07-15T05:00:43.119Z,18.52
2018-07-15T05:03:11.442Z,18.64
2018-07-15T05:05:39.766Z,18.70
2018-07-15T05:08:07.542Z,18.71
2018-07-15T05:10:36.438Z,18.76
2018-07-15T05:13:04.771Z,18.72
2018-07-15T05:15:33.072Z,18.80
2018-07-15T05:18:01.405Z,18.88
2018-07-15T05:20:29.136Z,18.99
2018-07-15T05:22:58.037Z,19.04
2018-07-15T05:25:26.369Z,19.12
2018-07-15T05:27:54.093Z,19.17
2018-07-15T05:30:22.990Z,19.21
2018-07-15T05:32:51.309Z,19.33
2018-07-15T05:35:19.054Z,19.45
2018-07-15T05:37:47.956Z,19.60
2018-07-15T05:40:16.290Z,19.75
2018-07-15T05:42:44.032Z,19.86
2018-07-15T05:45:12.938Z,19.96
2018-07-15T05:47:41.257Z,20.08
2018-07-15T05:50:09.586Z,20.18
2018-07-15T05:52:37.918Z,20.24
2018-07-15T05:55:06.238Z,20.24
2018-07-15T05:57:34.005Z,20.27
2018-07-15T06:00:02.898Z,20.32
2018-07-15T06:02:31.232Z,20.26
2018-07-15T06:04:58.973Z,20.27
2018-07-15T06:07:27.876Z,20.33
2018-07-15T06:09:56.240Z,20.40
2018-07-15T06:12:30.353Z,20.38
2018-07-15T06:14:58.693Z,20.37
2018-07-15T06:17:27.051Z,20.37
2018-07-15T06:19:55.342Z,20.44
2018-07-15T06:22:23.093Z,20.49
2018-07-15T06:24:51.414Z,20.49
2018-07-15T06:27:20.318Z,20.42
2018-07-15T06:29:48.769Z,20.35
2018-07-15T06:32:17.122Z,20.33
2018-07-15T06:34:45.442Z,20.46
2018-07-15T06:37:14.353Z,20.59
2018-07-15T06:39:42.681Z,20.70
2018-07-15T06:42:11.014Z,20.78
2018-07-15T06:44:38.763Z,20.86
2018-07-15T06:47:07.665Z,20.96
2018-07-15T06:49:35.980Z,21.01
2018-07-15T06:52:04.301Z,21.07
2018-07-15T06:54:32.625Z,21.12
2018-07-15T06:57:00.976Z,21.27
2018-07-15T06:59:29.785Z,21.38
2018-07-15T07:01:58.109Z,21.54
2018-07-15T07:04:26.432Z,21.61
2018-07-15T07:06:54.748Z,21.65
2018-07-15T07:09:22.488Z,21.81
2018-07-15T07:11:51.417Z,21.88
2018-07-15T07:14:19.847Z,22.01
2018-07-15T07:16:48.103Z,22.02
2018-07-15T07:19:15.884Z,21.95
2018-07-15T07:21:44.800Z,22.06
2018-07-15T07:24:12.512Z,22.15
2018-07-15T07:26:41.437Z,22.23
2018-07-15T07:29:09.763Z,22.33
2018-07-15T07:31:38.085Z,22.39
2018-07-15T07:34:06.433Z,22.50
2018-07-15T07:36:34.752Z,22.55
2018-07-15T07:39:03.081Z,22.62
2018-07-15T07:41:30.835Z,22.71
2018-07-15T07:43:59.740Z,22.75
2018-07-15T07:46:28.059Z,22.76
2018-07-15T07:49:04.985Z,22.75
2018-07-15T07:51:30.121Z,22.85
2018-07-15T07:53:58.484Z,22.91
2018-07-15T07:56:26.808Z,22.97
2018-07-15T07:58:55.138Z,22.99
2018-07-15T08:01:23.455Z,23.05
2018-07-15T08:03:51.781Z,23.11
2018-07-15T08:06:20.102Z,23.15
2018-07-15T08:08:47.852Z,23.21
2018-07-15T08:11:16.517Z,23.22
2018-07-15T08:13:45.108Z,23.26
2018-07-15T08:16:13.438Z,23.33
2018-07-15T08:18:41.770Z,23.34
2018-07-15T08:21:10.098Z,23.34
2018-07-15T08:23:38.561Z,23.41
2018-07-15T08:26:13.417Z,23.47
2018-07-15T08:28:42.199Z,23.56
2018-07-15T08:31:11.036Z,23.66
2018-07-15T08:33:39.556Z,23.75
2018-07-15T08:36:07.292Z,23.71
2018-07-15T08:38:36.348Z,23.63
2018-07-15T08:41:04.678Z,23.61
2018-07-15T08:43:33.008Z,23.75
2018-07-15T08:46:02.345Z,23.81
2018-07-15T08:48:53.985Z,23.85
2018-07-15T08:54:09.472Z,23.94
2018-07-15T08:56:38.648Z,24.00
2018-07-15T08:59:06.040Z,24.00
2018-07-15T09:01:49.847Z,23.94
2018-07-15T09:04:03.942Z,23.92
2018-07-15T09:06:31.745Z,23.95
2018-07-15T09:09:00.686Z,24.01
2018-07-15T09:11:28.436Z,24.08
2018-07-15T09:13:57.581Z,24.15
2018-07-15T09:16:25.423Z,24.17
2018-07-15T09:18:53.811Z,24.20
2018-07-15T09:21:22.748Z,24.20
2018-07-15T09:23:51.104Z,24.21
2018-07-15T09:26:19.450Z,24.25
2018-07-15T09:28:49.957Z,24.30
2018-07-15T09:31:19.213Z,24.32
2018-07-15T09:33:47.693Z,24.33
2018-07-15T09:36:17.203Z,24.36
2018-07-15T09:38:45.426Z,24.42
2018-07-15T09:41:14.809Z,24.45
2018-07-15T09:43:42.685Z,24.49
2018-07-15T09:46:11.011Z,24.54
2018-07-15T09:48:39.530Z,24.55
2018-07-15T09:51:07.813Z,24.58
2018-07-15T09:53:36.149Z,24.64
2018-07-15T09:56:03.906Z,24.66
2018-07-15T09:58:32.814Z,24.64
2018-07-15T10:01:01.164Z,24.64
2018-07-15T10:03:29.499Z,24.68
2018-07-15T10:05:57.253Z,24.73
2018-07-15T10:08:26.175Z,24.78
2018-07-15T10:10:53.986Z,24.86
2018-07-15T10:13:22.862Z,24.88
2018-07-15T10:15:51.293Z,24.87
2018-07-15T10:18:19.043Z,24.84
2018-07-15T10:20:47.380Z,24.89
2018-07-15T10:23:15.710Z,24.92
2018-07-15T10:25:44.047Z,24.97
2018-07-15T10:28:12.948Z,25.01
2018-07-15T10:30:41.297Z,25.04
2018-07-15T10:33:09.645Z,25.09
2018-07-15T10:35:37.948Z,25.11
2018-07-15T10:38:06.923Z,25.07
2018-07-15T10:40:34.960Z,25.03
2018-07-15T10:43:03.278Z,24.99
2018-07-15T10:45:31.616Z,25.03
2018-07-15T10:47:59.936Z,25.11
2018-07-15T10:50:27.680Z,25.09
2018-07-15T10:52:56.606Z,25.08
2018-07-15T10:55:24.322Z,25.04
2018-07-15T10:57:53.242Z,25.05
2018-07-15T11:00:21.026Z,25.07
2018-07-15T11:02:49.922Z,25.12
2018-07-15T11:05:25.398Z,25.16
2018-07-15T11:07:53.744Z,25.23
2018-07-15T11:10:21.501Z,25.27
2018-07-15T11:12:49.935Z,25.32
2018-07-15T11:15:18.379Z,25.35
2018-07-15T11:17:47.097Z,25.39
2018-07-15T11:20:15.410Z,25.50
2018-07-15T11:22:43.733Z,25.59
2018-07-15T11:25:12.055Z,25.61
2018-07-15T11:27:40.377Z,25.68
2018-07-15T11:30:08.698Z,25.75
2018-07-15T11:32:37.022Z,25.79
2018-07-15T11:35:04.925Z,25.87
2018-07-15T11:37:33.117Z,25.95
2018-07-15T11:40:02.026Z,26.05
2018-07-15T11:42:30.436Z,26.19
2018-07-15T11:44:58.197Z,26.32
2018-07-15T11:47:27.154Z,26.44
2018-07-15T11:50:01.703Z,26.55
2018-07-15T11:52:30.062Z,26.64
2018-07-15T11:54:58.374Z,26.68
2018-07-15T11:57:27.013Z,26.72
2018-07-15T11:59:55.371Z,26.86
2018-07-15T12:02:24.047Z,26.99
2018-07-15T12:04:52.163Z,27.07
2018-07-15T12:07:20.539Z,27.11
2018-07-15T12:09:54.530Z,27.15
2018-07-15T12:12:22.948Z,27.29
2018-07-15T12:14:51.251Z,27.36
2018-07-15T12:17:18.999Z,27.48
2018-07-15T12:19:48.666Z,27.62
2018-07-15T12:22:16.993Z,27.63
2018-07-15T12:24:46.323Z,27.61
2018-07-15T12:27:14.926Z,27.70
2018-07-15T12:29:43.560Z,27.75
2018-07-15T12:32:14.816Z,27.73
2018-07-15T12:37:17.594Z,27.99
2018-07-15T12:39:45.933Z,28.09
2018-07-15T12:42:13.773Z,28.06
2018-07-15T12:44:42.510Z,28.15
2018-07-15T12:47:11.410Z,28.19
2018-07-15T12:49:39.204Z,28.29
2018-07-15T12:52:08.200Z,28.38
2018-07-15T12:54:36.502Z,28.49
2018-07-15T12:59:53.399Z,28.68
2018-07-15T13:02:21.304Z,28.77
2018-07-15T13:04:50.037Z,28.89
2018-07-15T13:07:19.582Z,29.04
2018-07-15T13:09:47.698Z,29.15
2018-07-15T13:12:16.243Z,29.27
2018-07-15T13:14:44.644Z,29.34
2018-07-15T13:17:12.954Z,29.43
2018-07-15T13:19:41.275Z,29.43
2018-07-15T13:22:09.905Z,29.55
2018-07-15T13:24:38.502Z,29.68
2018-07-15T13:27:06.889Z,29.75
2018-07-15T13:29:35.073Z,29.74
2018-07-15T13:32:03.344Z,29.80
2018-07-15T13:34:31.675Z,29.90
2018-07-15T13:36:59.997Z,30.01
2018-07-15T13:39:28.322Z,30.08
2018-07-15T13:41:56.182Z,30.23
2018-07-15T13:44:25.024Z,30.32
2018-07-15T13:46:53.355Z,30.31
2018-07-15T13:49:21.396Z,30.28
2018-07-15T13:51:50.013Z,30.39
2018-07-15T13:54:17.934Z,30.45
2018-07-15T13:56:46.660Z,30.60
2018-07-15T13:59:14.989Z,30.80
2018-07-15T14:01:43.355Z,30.85
2018-07-15T14:04:11.170Z,30.88
2018-07-15T14:06:40.035Z,30.86
2018-07-15T14:09:09.247Z,30.86
2018-07-15T14:11:37.542Z,30.93
2018-07-15T14:14:05.388Z,31.15
2018-07-15T14:16:43.198Z,31.30
2018-07-15T14:19:11.592Z,31.59
2018-07-15T14:21:39.979Z,31.68
2018-07-15T14:24:08.320Z,31.69
2018-07-15T14:26:37.039Z,31.70
2018-07-15T14:31:38.705Z,31.64
2018-07-15T14:34:08.395Z,31.71
2018-07-15T14:36:36.747Z,31.77
2018-07-15T14:39:05.195Z,31.74
2018-07-15T14:41:34.323Z,31.61
2018-07-15T14:44:02.572Z,31.58
2018-07-15T14:46:31.015Z,31.75
2018-07-15T14:48:59.329Z,32.11
2018-07-15T14:51:27.656Z,32.12
2018-07-15T14:53:55.638Z,32.00
2018-07-15T14:56:24.311Z,32.19
2018-07-15T14:58:52.777Z,32.29
2018-07-15T15:01:21.203Z,32.17
2018-07-15T15:03:49.311Z,31.98
2018-07-15T15:06:17.284Z,31.89
2018-07-15T15:08:46.691Z,31.91
2018-07-15T15:11:15.007Z,31.83
2018-07-15T15:13:43.911Z,31.75
2018-07-15T15:16:12.303Z,31.95
2018-07-15T15:18:40.571Z,32.07
2018-07-15T15:21:08.879Z,32.23
2018-07-15T15:23:37.230Z,32.10
2018-07-15T15:26:05.561Z,32.19
2018-07-15T15:28:33.895Z,32.34
2018-07-15T15:31:02.226Z,32.54
2018-07-15T15:33:30.531Z,32.72
2018-07-15T15:35:58.867Z,32.96
2018-07-15T15:38:26.630Z,33.11
2018-07-15T15:40:55.536Z,33.22
2018-07-15T15:46:03.303Z,32.84
2018-07-15T15:48:32.203Z,32.82
2018-07-15T15:51:00.572Z,32.52
2018-07-15T15:53:28.336Z,32.47
2018-07-15T15:55:57.249Z,32.53
2018-07-15T15:58:25.580Z,32.56
2018-07-15T16:00:53.899Z,32.25
2018-07-15T16:03:22.278Z,32.17
2018-07-15T16:05:50.605Z,32.06
2018-07-15T16:08:18.367Z,31.99
2018-07-15T16:10:46.691Z,32.13
2018-07-15T16:13:15.587Z,32.17
2018-07-15T16:15:43.430Z,32.11
2018-07-15T16:18:12.251Z,32.21
2018-07-15T16:20:40.573Z,32.15
2018-07-15T16:23:08.919Z,32.16
2018-07-15T16:25:36.826Z,32.11
2018-07-15T16:28:05.711Z,31.99
2018-07-15T16:30:34.033Z,31.75
2018-07-15T16:33:02.367Z,31.59
2018-07-15T16:35:30.898Z,31.62
2018-07-15T16:37:59.025Z,31.46
2018-07-15T16:40:27.365Z,31.33
2018-07-15T16:42:55.703Z,31.38
2018-07-15T16:45:24.031Z,31.52
2018-07-15T16:47:52.363Z,31.51
2018-07-15T16:50:20.118Z,31.53
2018-07-15T16:52:50.500Z,31.47
2018-07-15T16:55:18.244Z,31.23
2018-07-15T16:57:46.585Z,31.27
2018-07-15T17:00:27.621Z,30.91
2018-07-15T17:02:56.867Z,29.95
2018-07-15T17:05:26.555Z,29.27
2018-07-15T17:07:54.190Z,28.60
2018-07-15T17:10:22.519Z,27.92
2018-07-15T17:12:51.429Z,27.38
2018-07-15T17:15:19.915Z,27.03
2018-07-15T17:17:48.211Z,26.81
2018-07-15T17:20:17.487Z,26.65
2018-07-15T17:22:45.288Z,26.40
2018-07-15T17:25:17.931Z,26.35
2018-07-15T17:27:48.050Z,26.28
2018-07-15T17:30:16.664Z,26.14
2018-07-15T17:32:45.686Z,26.03
2018-07-15T17:35:14.440Z,25.97
2018-07-15T17:37:44.317Z,25.96
2018-07-15T17:40:11.397Z,25.91
2018-07-15T17:42:39.922Z,25.82
2018-07-15T17:45:10.258Z,25.51
2018-07-15T17:47:40.426Z,25.44
2018-07-15T17:50:08.819Z,25.35
2018-07-15T17:52:41.251Z,25.30
2018-07-15T17:57:49.340Z,25.12
2018-07-15T18:00:25.165Z,25.08
2018-07-15T18:02:54.244Z,24.93
2018-07-15T18:05:22.599Z,24.84
2018-07-15T18:07:51.944Z,24.79
2018-07-15T18:10:21.330Z,24.63
2018-07-15T18:12:49.363Z,24.62
2018-07-15T18:15:18.938Z,24.55
2018-07-15T18:17:46.739Z,24.40
2018-07-15T18:20:15.222Z,24.22
2018-07-15T18:22:44.431Z,24.06
2018-07-15T18:25:21.251Z,24.05
2018-07-15T18:27:49.677Z,24.11
2018-07-15T18:30:17.999Z,24.14
2018-07-15T18:32:46.333Z,24.10
2018-07-15T18:35:14.073Z,24.03
2018-07-15T18:37:43.143Z,23.97
2018-07-15T18:40:13.115Z,23.94
2018-07-15T18:42:42.022Z,23.85
2018-07-15T18:45:13.803Z,23.82
2018-07-15T18:47:42.145Z,23.72
2018-07-15T18:50:11.409Z,23.68
2018-07-15T18:52:39.163Z,23.68
2018-07-15T18:55:08.772Z,23.64
2018-07-15T18:57:37.139Z,23.58
2018-07-15T19:00:06.441Z,23.52
2018-07-15T19:02:35.318Z,23.45
2018-07-15T19:05:03.634Z,23.24
2018-07-15T19:07:32.310Z,23.04
2018-07-15T19:10:01.052Z,22.89
2018-07-15T19:12:29.454Z,22.85
2018-07-15T19:14:58.747Z,22.83
2018-07-15T19:17:27.120Z,22.67
2018-07-15T19:19:54.861Z,22.65
2018-07-15T19:22:23.945Z,22.61
2018-07-15T19:24:52.422Z,22.59
2018-07-15T19:27:20.833Z,22.43
2018-07-15T19:29:49.163Z,22.44
2018-07-15T19:32:17.598Z,22.43
2018-07-15T19:34:49.428Z,22.27
2018-07-15T19:37:17.233Z,22.17
2018-07-15T19:39:46.182Z,22.15
2018-07-15T19:42:14.522Z,22.09
2018-07-15T19:44:42.920Z,22.10
2018-07-15T19:47:11.265Z,21.91
2018-07-15T19:49:39.744Z,21.82
2018-07-15T19:52:08.302Z,21.78
2018-07-15T19:54:36.416Z,21.66
2018-07-15T19:57:09.151Z,21.65
2018-07-15T19:59:37.707Z,21.65
2018-07-15T20:02:06.079Z,21.56
2018-07-15T20:04:34.408Z,21.58
2018-07-15T20:07:02.769Z,21.56
2018-07-15T20:09:31.266Z,21.49
2018-07-15T20:12:05.312Z,21.38
2018-07-15T20:14:33.647Z,21.32
2018-07-15T20:17:02.250Z,21.18
2018-07-15T20:19:30.594Z,21.06
2018-07-15T20:21:59.087Z,21.06
2018-07-15T20:24:27.412Z,21.03
2018-07-15T20:26:55.850Z,21.04
2018-07-15T20:29:24.290Z,21.04
2018-07-15T20:31:52.709Z,20.98
2018-07-15T20:34:21.061Z,21.02
2018-07-15T20:36:48.815Z,21.09
2018-07-15T20:39:17.979Z,21.10
2018-07-15T20:41:46.163Z,21.11
2018-07-15T20:44:14.518Z,21.01
2018-07-15T20:46:42.951Z,20.91
2018-07-15T20:49:12.201Z,20.73
2018-07-15T20:51:40.525Z,20.63
2018-07-15T20:54:08.979Z,20.50
2018-07-15T20:56:36.752Z,20.36
2018-07-15T20:59:05.666Z,20.40
2018-07-15T21:01:33.983Z,20.38
2018-07-15T21:04:02.313Z,20.42
2018-07-15T21:06:30.634Z,20.52
2018-07-15T21:08:58.369Z,20.54
2018-07-15T21:11:27.507Z,20.52
2018-07-15T21:13:55.615Z,20.38
2018-07-15T21:16:23.947Z,20.23
2018-07-15T21:18:53.169Z,20.14
2018-07-15T21:21:21.689Z,20.17
2018-07-15T21:23:51.851Z,20.20
2018-07-15T21:26:20.188Z,20.06
2018-07-15T21:28:48.509Z,20.00
2018-07-15T21:31:16.304Z,20.04
2018-07-15T21:33:46.115Z,20.05
2018-07-15T21:36:14.432Z,20.03
2018-07-15T21:38:43.093Z,19.94
2018-07-15T21:41:11.506Z,19.90
2018-07-15T21:43:40.398Z,19.92
2018-07-15T21:46:08.144Z,19.96
2018-07-15T21:48:37.111Z,20.02
2018-07-15T21:51:05.442Z,19.98
2018-07-15T21:53:33.759Z,19.92
2018-07-15T21:56:02.086Z,19.90
2018-07-15T21:58:30.151Z,19.90
2018-07-15T22:00:58.740Z,19.90
2018-07-15T22:03:27.082Z,19.94
2018-07-15T22:05:55.398Z,19.97
2018-07-15T22:08:29.765Z,20.02
2018-07-15T22:10:58.702Z,20.04
2018-07-15T22:13:27.033Z,20.04
2018-07-15T22:15:55.363Z,19.98
2018-07-15T22:18:23.106Z,19.94
2018-07-15T22:20:51.507Z,19.95
2018-07-15T22:23:20.418Z,20.00
2018-07-15T22:25:48.940Z,19.98
2018-07-15T22:28:17.844Z,19.92
2018-07-15T22:30:46.757Z,19.94
2018-07-15T22:33:15.094Z,19.83
2018-07-15T22:35:43.439Z,19.68
2018-07-15T22:38:11.335Z,19.57
2018-07-15T22:40:40.097Z,19.39
2018-07-15T22:43:08.431Z,19.30
2018-07-15T22:45:36.174Z,19.27
2018-07-15T22:48:05.325Z,19.17
2018-07-15T22:50:34.232Z,19.09
2018-07-15T22:53:02.561Z,19.09
2018-07-15T22:55:30.297Z,19.00
2018-07-15T22:57:58.625Z,18.98
2018-07-15T23:00:27.533Z,18.91
2018-07-15T23:02:55.277Z,18.80
2018-07-15T23:05:35.390Z,18.72
2018-07-15T23:08:03.767Z,18.72
2018-07-15T23:10:32.499Z,18.64
2018-07-15T23:13:00.964Z,18.64
2018-07-15T23:15:29.290Z,18.65
2018-07-15T23:17:58.382Z,18.59
2018-07-15T23:20:26.733Z,18.63
2018-07-15T23:22:55.066Z,18.71
2018-07-15T23:25:24.363Z,18.63
2018-07-15T23:27:52.060Z,18.60
2018-07-15T23:30:20.651Z,18.56
2018-07-15T23:32:48.977Z,18.60
2018-07-15T23:35:16.729Z,18.73
2018-07-15T23:37:46.000Z,18.82
2018-07-15T23:40:14.342Z,18.81
2018-07-15T23:42:42.840Z,18.79
2018-07-15T23:45:10.868Z,18.74
2018-07-15T23:47:39.780Z,18.76
2018-07-15T23:50:07.758Z,18.73
2018-07-15T23:52:35.874Z,18.65
2018-07-15T23:55:04.795Z,18.69
2018-07-15T23:57:33.127Z,18.80
